Accueil
METAR-TAF:

METAR-TAF

Aéroports :

New River Valley Airport

Dublin, Virginie, États-Unis

latitude: 37-08N, longitude: 080-41W, altitude: 642 m

Observation

Le bulletin a été fait il y a 1 heure et 8 minutes, à 14:55 UTC
Vent calme
Température 0°C
Humidité 59%
Pression 1027 hPa
Visibilité: 16.1 km
Ciel clair

METAR: KPSK 141455Z AUTO 00000KT 10SM CLR 00/M07 A3033 RMK AO2 T10031071

Heure: 11:03 (16:03 UTC)


TAF: absent

Observations et prévisions météorologiques de plus de 4000 aéroports (messages METAR et TAF).

Les stations disponibles sont représentées par des disques jaunes et rouges sur la carte.

Passer la souris dessus pour voir le nom de la station.

Cliquer dessus pour voir les observations et prévisions météorologiques.

Pour changer de carte: cliquez sur les boutons verts avec une croix noire pour zoomer, sur le bouton vert avec un tiret pour effectuer un zoom arrière, ou sur les flèches vertes pour les cartes adjacentes.


METAR-TAF: